createdAt,value
2018-01-22T00:00:33.956Z,23.55
2018-01-22T00:01:07.624Z,22.33
2018-01-22T00:01:41.293Z,24.25
2018-01-22T00:02:15.734Z,22.25
2018-01-22T00:02:49.394Z,23.00
2018-01-22T00:03:23.872Z,27.85
2018-01-22T00:03:58.306Z,25.73
2018-01-22T00:04:32.744Z,25.50
2018-01-22T00:05:06.409Z,26.05
2018-01-22T00:05:40.070Z,23.80
2018-01-22T00:06:13.732Z,24.52
2018-01-22T00:06:47.407Z,24.08
2018-01-22T00:07:21.084Z,25.23
2018-01-22T00:07:54.758Z,23.35
2018-01-22T00:08:29.205Z,22.95
2018-01-22T00:09:02.685Z,30.83
2018-01-22T00:09:36.151Z,23.45
2018-01-22T00:10:09.814Z,28.92
2018-01-22T00:10:44.235Z,28.15
2018-01-22T00:11:18.667Z,26.75
2018-01-22T00:11:52.331Z,25.08
2018-01-22T00:12:25.994Z,28.73
2018-01-22T00:12:59.661Z,30.55
2018-01-22T00:13:33.376Z,31.35
2018-01-22T00:14:07.037Z,26.52
2018-01-22T00:14:40.697Z,28.38
2018-01-22T00:15:14.349Z,29.05
2018-01-22T00:15:48.778Z,26.33
2018-01-22T00:16:22.429Z,28.08
2018-01-22T00:16:56.082Z,25.33
2018-01-22T00:17:29.735Z,29.25
2018-01-22T00:18:04.158Z,26.42
2018-01-22T00:18:37.841Z,26.05
2018-01-22T00:19:11.504Z,23.62
2018-01-22T00:19:45.164Z,24.33
2018-01-22T00:20:18.894Z,25.60
2018-01-22T00:20:53.308Z,26.02
2018-01-22T00:21:26.969Z,21.83
2018-01-22T00:22:00.651Z,23.62
2018-01-22T00:22:34.310Z,24.35
2018-01-22T00:23:07.980Z,23.60
2018-01-22T00:23:41.669Z,23.02
2018-01-22T00:24:15.330Z,23.27
2018-01-22T00:24:49.774Z,21.45
2018-01-22T00:25:23.438Z,23.00
2018-01-22T00:25:57.093Z,22.85
2018-01-22T00:26:31.027Z,21.60
2018-01-22T00:27:04.693Z,21.73
2018-01-22T00:27:39.201Z,22.52
2018-01-22T00:28:13.643Z,25.92
2018-01-22T00:28:47.341Z,18.42
2018-01-22T00:29:21.009Z,21.92
2018-01-22T00:29:54.680Z,21.33
2018-01-22T00:30:29.117Z,23.33
2018-01-22T00:31:02.793Z,22.55
2018-01-22T00:31:37.230Z,22.70
2018-01-22T00:32:10.900Z,22.70
2018-01-22T00:32:44.581Z,23.00
2018-01-22T00:33:18.254Z,22.25
2018-01-22T00:33:52.564Z,23.27
2018-01-22T00:34:27.069Z,22.10
2018-01-22T00:35:01.505Z,21.35
2018-01-22T00:35:35.182Z,23.67
2018-01-22T00:36:09.609Z,25.25
2018-01-22T00:36:43.284Z,23.33
2018-01-22T00:37:17.714Z,28.17
2018-01-22T00:37:51.381Z,27.90
2018-01-22T00:38:25.044Z,23.55
2018-01-22T00:38:58.739Z,24.55
2018-01-22T00:39:33.176Z,23.80
2018-01-22T00:40:06.830Z,23.00
2018-01-22T00:40:40.489Z,23.50
2018-01-22T00:41:14.163Z,25.27
2018-01-22T00:41:47.824Z,23.42
2018-01-22T00:42:21.493Z,21.37
2018-01-22T00:42:55.925Z,24.02
2018-01-22T00:43:29.604Z,22.27
2018-01-22T00:44:04.055Z,22.27
2018-01-22T00:44:37.710Z,24.83
2018-01-22T00:45:11.371Z,29.45
2018-01-22T00:45:45.037Z,22.50
2018-01-22T00:46:18.706Z,23.67
2018-01-22T00:46:52.362Z,24.12
2018-01-22T00:47:26.135Z,22.13
2018-01-22T00:47:59.790Z,24.48
2018-01-22T00:48:33.451Z,26.35
2018-01-22T00:49:07.142Z,24.30
2018-01-22T00:49:40.800Z,22.23
2018-01-22T00:50:15.224Z,21.40
2018-01-22T00:50:48.883Z,21.40
2018-01-22T00:51:23.707Z,23.12
2018-01-22T00:51:58.140Z,22.60
2018-01-22T00:52:31.816Z,21.45
2018-01-22T00:53:05.596Z,22.08
2018-01-22T00:53:40.031Z,22.70
2018-01-22T00:54:13.719Z,24.73
2018-01-22T00:54:47.369Z,29.55
2018-01-22T00:55:21.021Z,23.77
2018-01-22T00:55:54.694Z,22.58
2018-01-22T00:56:28.350Z,24.00
2018-01-22T00:57:02.790Z,24.25
2018-01-22T00:57:36.451Z,22.27
2018-01-22T00:58:10.890Z,25.40
2018-01-22T00:58:44.562Z,21.12
2018-01-22T00:59:18.064Z,25.62
2018-01-22T00:59:51.738Z,22.20
2018-01-22T01:00:25.413Z,24.20
2018-01-22T01:00:59.832Z,22.62
2018-01-22T01:01:34.269Z,24.33
2018-01-22T01:02:07.598Z,24.25
2018-01-22T01:02:42.030Z,22.00
2018-01-22T01:03:15.698Z,23.02
2018-01-22T01:03:50.130Z,24.52
2018-01-22T01:04:23.501Z,27.50
2018-01-22T01:04:57.159Z,20.45
2018-01-22T01:05:30.825Z,25.98
2018-01-22T01:06:04.482Z,23.95
2018-01-22T01:06:38.156Z,26.70
2018-01-22T01:07:12.573Z,26.80
2018-01-22T01:07:46.254Z,23.40
2018-01-22T01:08:20.686Z,24.10
2018-01-22T01:08:54.349Z,22.58
2018-01-22T01:09:29.073Z,29.45
2018-01-22T01:10:02.729Z,25.50
2018-01-22T01:10:36.387Z,23.23
2018-01-22T01:11:10.061Z,23.92
2018-01-22T01:11:43.725Z,22.00
2018-01-22T01:12:18.150Z,23.52
2018-01-22T01:12:51.829Z,21.70
2018-01-22T01:13:25.495Z,25.27
2018-01-22T01:13:59.152Z,22.80
2018-01-22T01:14:32.830Z,25.85
2018-01-22T01:15:06.495Z,20.88
2018-01-22T01:15:40.165Z,24.00
2018-01-22T01:16:13.829Z,20.12
2018-01-22T01:16:47.497Z,21.90
2018-01-22T01:17:21.169Z,23.00
2018-01-22T01:17:54.850Z,23.42
2018-01-22T01:18:28.509Z,22.08
2018-01-22T01:19:02.934Z,23.58
2018-01-22T01:19:36.618Z,24.37
2018-01-22T01:20:10.326Z,22.33
2018-01-22T01:20:44.930Z,22.73
2018-01-22T01:21:18.598Z,23.55
2018-01-22T01:21:53.027Z,21.52
2018-01-22T01:22:26.695Z,23.10
2018-01-22T01:23:01.110Z,24.15
2018-01-22T01:23:34.774Z,26.37
2018-01-22T01:24:08.441Z,26.23
2018-01-22T01:24:42.147Z,21.62
2018-01-22T01:25:15.801Z,23.17
2018-01-22T01:25:49.462Z,22.80
2018-01-22T01:26:23.126Z,23.50
2018-01-22T01:26:57.552Z,23.70
2018-01-22T01:27:31.992Z,27.40
2018-01-22T01:28:05.648Z,20.83
2018-01-22T01:28:40.078Z,24.73
2018-01-22T01:29:13.742Z,20.58
2018-01-22T01:29:48.541Z,23.17
2018-01-22T01:30:22.970Z,25.27
2018-01-22T01:30:56.643Z,21.30
2018-01-22T01:31:31.072Z,22.73
2018-01-22T01:32:04.740Z,23.23
2018-01-22T01:32:39.158Z,25.42
2018-01-22T01:33:13.586Z,24.35
2018-01-22T01:33:47.287Z,24.50
2018-01-22T01:34:20.946Z,21.12
2018-01-22T01:34:55.388Z,23.67
2018-01-22T01:35:29.062Z,22.48
2018-01-22T01:36:02.719Z,23.62
2018-01-22T01:36:37.177Z,26.73
2018-01-22T01:37:10.853Z,20.90
2018-01-22T01:37:44.521Z,21.40
2018-01-22T01:38:18.193Z,21.60
2018-01-22T01:38:52.618Z,22.80
2018-01-22T01:39:27.040Z,22.55
2018-01-22T01:40:00.875Z,27.25
2018-01-22T01:40:35.318Z,26.80
2018-01-22T01:41:09.744Z,23.50
2018-01-22T01:41:43.406Z,25.58
2018-01-22T01:42:17.825Z,27.40
2018-01-22T01:42:52.261Z,25.50
2018-01-22T01:43:25.936Z,23.10
2018-01-22T01:43:59.605Z,22.75
2018-01-22T01:44:34.034Z,24.50
2018-01-22T01:45:07.734Z,25.05
2018-01-22T01:45:41.393Z,26.58
2018-01-22T01:46:15.837Z,26.15
2018-01-22T01:46:49.500Z,24.45
2018-01-22T01:47:23.169Z,23.65
2018-01-22T01:47:56.851Z,26.12
2018-01-22T01:48:30.518Z,23.05
2018-01-22T01:49:04.169Z,23.85
2018-01-22T01:49:37.842Z,26.10
2018-01-22T01:50:11.526Z,22.92
2018-01-22T01:50:45.946Z,25.62
2018-01-22T01:51:19.609Z,26.55
2018-01-22T01:51:54.040Z,24.80
2018-01-22T01:52:27.714Z,27.70
2018-01-22T01:53:02.136Z,25.90
2018-01-22T01:53:36.565Z,24.35
2018-01-22T01:54:10.413Z,25.40
2018-01-22T01:54:44.082Z,23.83
2018-01-22T01:55:18.056Z,22.85
2018-01-22T01:55:51.730Z,20.08
2018-01-22T01:56:25.400Z,25.05
2018-01-22T01:56:59.837Z,27.77
2018-01-22T01:57:33.518Z,25.48
2018-01-22T01:58:07.178Z,23.08
2018-01-22T01:58:41.612Z,28.60
2018-01-22T01:59:15.263Z,25.92
2018-01-22T01:59:48.918Z,27.42
2018-01-22T02:00:22.625Z,28.27
2018-01-22T02:00:56.290Z,26.35
2018-01-22T02:01:30.022Z,26.45
2018-01-22T02:02:03.674Z,28.42
2018-01-22T02:02:37.339Z,25.70
2018-01-22T02:03:10.760Z,28.70
2018-01-22T02:03:44.412Z,26.02
2018-01-22T02:04:18.076Z,28.38
2018-01-22T02:04:52.510Z,27.23
2018-01-22T02:05:26.199Z,27.62
2018-01-22T02:05:59.861Z,26.92
2018-01-22T02:06:34.281Z,24.10
2018-01-22T02:07:07.939Z,27.20
2018-01-22T02:07:42.369Z,26.75
2018-01-22T02:08:16.785Z,24.65
2018-01-22T02:08:50.448Z,25.50
2018-01-22T02:09:24.887Z,20.73
2018-01-22T02:09:58.553Z,22.27
2018-01-22T02:10:33.358Z,25.58
2018-01-22T02:11:07.795Z,24.95
2018-01-22T02:11:41.456Z,26.35
2018-01-22T02:12:15.882Z,23.12
2018-01-22T02:12:49.551Z,23.35
2018-01-22T02:13:23.988Z,22.60
2018-01-22T02:13:57.657Z,21.50
2018-01-22T02:14:32.122Z,22.35
2018-01-22T02:15:05.452Z,22.20
2018-01-22T02:15:39.915Z,26.45
2018-01-22T02:16:13.579Z,25.70
2018-01-22T02:16:47.253Z,27.30
2018-01-22T02:17:20.914Z,23.90
2018-01-22T02:59:42.858Z,38.25
2018-01-22T03:00:16.507Z,28.60
2018-01-22T03:00:50.937Z,25.05
2018-01-22T03:01:24.598Z,28.50
2018-01-22T03:01:59.018Z,32.25
2018-01-22T03:02:33.446Z,29.15
2018-01-22T03:03:07.101Z,30.45
2018-01-22T03:03:41.550Z,26.37
2018-01-22T03:04:15.221Z,31.70
2018-01-22T03:04:48.899Z,29.87
2018-01-22T03:05:23.337Z,29.23
2018-01-22T03:05:56.997Z,32.15
2018-01-22T03:06:31.433Z,28.62
2018-01-22T03:07:04.760Z,34.42
2018-01-22T03:07:38.425Z,30.48
2018-01-22T03:08:12.105Z,33.80
2018-01-22T03:08:46.153Z,27.87
2018-01-22T03:09:20.596Z,29.08
2018-01-22T03:09:54.277Z,29.73
2018-01-22T03:10:27.928Z,30.48
2018-01-22T03:11:02.358Z,32.00
2018-01-22T03:11:36.035Z,28.60
2018-01-22T03:12:10.470Z,30.00
2018-01-22T03:12:44.137Z,31.60
2018-01-22T03:13:18.562Z,31.00
2018-01-22T03:13:52.533Z,27.73
2018-01-22T03:14:26.954Z,29.92
2018-01-22T03:15:01.388Z,27.85
2018-01-22T03:15:35.054Z,33.88
2018-01-22T03:16:09.497Z,27.23
2018-01-22T03:16:43.158Z,28.35
2018-01-22T03:17:16.814Z,27.33
2018-01-22T03:17:50.474Z,26.40
2018-01-22T03:18:24.332Z,28.58
2018-01-22T03:18:58.022Z,27.05
2018-01-22T03:19:31.689Z,27.00
2018-01-22T03:20:05.450Z,27.20
2018-01-22T03:20:39.113Z,26.87
2018-01-22T03:21:12.779Z,30.62
2018-01-22T03:21:46.426Z,26.50
2018-01-22T03:22:20.081Z,27.62
2018-01-22T03:22:53.733Z,25.58
2018-01-22T03:23:28.150Z,28.60
2018-01-22T03:24:02.609Z,25.35
2018-01-22T03:24:36.265Z,27.40
2018-01-22T03:25:09.932Z,30.62
2018-01-22T03:25:43.597Z,27.20
2018-01-22T03:26:17.262Z,29.33
2018-01-22T03:26:50.917Z,28.77
2018-01-22T03:27:24.572Z,26.90
2018-01-22T03:27:58.229Z,26.70
2018-01-22T03:28:31.894Z,29.45
2018-01-22T03:29:05.592Z,29.37
2018-01-22T03:29:39.245Z,28.48
2018-01-22T03:30:13.662Z,27.35
2018-01-22T03:30:47.320Z,27.00
2018-01-22T03:31:21.272Z,27.30
2018-01-22T03:31:54.933Z,26.92
2018-01-22T03:32:28.595Z,24.63
2018-01-22T03:33:02.245Z,25.48
2018-01-22T03:33:35.898Z,25.33
2018-01-22T03:34:09.578Z,25.40
2018-01-22T03:34:44.009Z,27.55
2018-01-22T03:35:17.687Z,26.35
2018-01-22T03:35:51.344Z,25.85
2018-01-22T03:36:24.994Z,28.20
2018-01-22T03:36:58.661Z,24.12
2018-01-22T03:37:32.326Z,22.87
2018-01-22T03:38:06.751Z,25.42
2018-01-22T03:38:40.433Z,24.40
2018-01-22T03:39:14.429Z,27.90
2018-01-22T03:39:48.095Z,25.75
2018-01-22T03:40:21.759Z,22.23
2018-01-22T03:40:55.421Z,24.20
2018-01-22T03:41:29.076Z,23.25
2018-01-22T03:42:03.510Z,20.62
2018-01-22T03:42:37.268Z,21.77
2018-01-22T03:43:11.694Z,25.85
2018-01-22T03:43:45.444Z,28.83
2018-01-22T03:44:19.131Z,27.27
2018-01-22T03:44:52.790Z,27.65
2018-01-22T03:45:26.452Z,25.90
2018-01-22T03:46:00.121Z,23.23
2018-01-22T03:46:33.766Z,24.85
2018-01-22T03:47:07.429Z,22.58
2018-01-22T03:47:41.089Z,21.95
2018-01-22T03:48:15.513Z,20.45
2018-01-22T03:48:49.934Z,26.85
2018-01-22T03:49:23.741Z,25.20
2018-01-22T03:49:57.397Z,27.13
2018-01-22T03:50:31.840Z,23.65
2018-01-22T03:51:05.493Z,27.85
2018-01-22T03:51:39.928Z,26.85
2018-01-22T03:52:13.680Z,24.12
2018-01-22T03:52:47.341Z,24.55
2018-01-22T03:53:21.001Z,24.10
2018-01-22T03:53:54.663Z,21.23
2018-01-22T03:54:29.097Z,25.58
2018-01-22T03:55:02.745Z,26.35
2018-01-22T03:55:37.158Z,22.00
2018-01-22T03:56:11.593Z,22.08
2018-01-22T03:56:45.242Z,27.13
2018-01-22T03:57:18.910Z,24.23
2018-01-22T03:57:52.605Z,25.67
2018-01-22T03:58:27.070Z,21.40
2018-01-22T03:59:00.726Z,23.52
2018-01-22T03:59:35.551Z,26.37
2018-01-22T04:00:09.981Z,21.85
2018-01-22T04:00:43.650Z,23.80
2018-01-22T04:01:18.078Z,22.75
2018-01-22T04:01:51.746Z,22.83
2018-01-22T04:02:26.179Z,23.35
2018-01-22T04:02:59.844Z,24.33
2018-01-22T04:03:34.278Z,29.15
2018-01-22T04:04:07.942Z,28.38
2018-01-22T04:04:42.386Z,26.30
2018-01-22T04:05:16.115Z,20.58
2018-01-22T04:05:49.774Z,23.52
2018-01-22T04:06:23.495Z,27.30
2018-01-22T04:06:57.157Z,28.70
2018-01-22T04:07:30.822Z,25.00
2018-01-22T04:08:04.483Z,27.27
2018-01-22T04:08:38.897Z,25.60
2018-01-22T04:09:13.330Z,26.52
2018-01-22T04:09:47.040Z,27.73
2018-01-22T04:10:20.730Z,22.00
2018-01-22T04:10:54.402Z,27.15
2018-01-22T04:11:28.080Z,23.62
2018-01-22T04:12:01.747Z,28.90
2018-01-22T04:12:35.426Z,21.92
2018-01-22T04:13:09.093Z,24.08
2018-01-22T04:13:42.770Z,21.87
2018-01-22T04:14:16.436Z,22.10
2018-01-22T04:14:50.145Z,23.00
2018-01-22T04:15:23.809Z,27.05
2018-01-22T04:15:57.462Z,23.00
2018-01-22T04:16:31.902Z,23.92
2018-01-22T04:17:05.656Z,21.55
2018-01-22T04:17:40.082Z,27.60
2018-01-22T04:18:14.517Z,23.70
2018-01-22T04:18:47.995Z,25.05
2018-01-22T04:19:21.663Z,21.75
2018-01-22T04:19:56.134Z,24.87
2018-01-22T04:20:29.790Z,24.27
2018-01-22T04:21:03.454Z,24.52
2018-01-22T04:21:37.129Z,21.08
2018-01-22T04:22:11.558Z,23.60
2018-01-22T04:22:45.219Z,21.75
2018-01-22T04:23:18.877Z,25.50
2018-01-22T04:23:52.528Z,24.95
2018-01-22T04:24:26.214Z,22.98
2018-01-22T04:24:59.913Z,21.40
2018-01-22T04:25:33.569Z,27.17
2018-01-22T04:26:07.231Z,23.27
2018-01-22T04:26:40.722Z,22.35
2018-01-22T04:27:14.380Z,24.08
2018-01-22T04:27:48.035Z,25.08
2018-01-22T04:28:21.704Z,21.08
2018-01-22T04:28:55.378Z,24.85
2018-01-22T04:29:29.053Z,20.23
2018-01-22T04:30:02.746Z,21.83
2018-01-22T04:30:36.426Z,20.70
2018-01-22T04:31:10.097Z,23.05
2018-01-22T04:31:43.770Z,22.30
2018-01-22T04:32:17.439Z,25.10
2018-01-22T04:32:51.891Z,22.85
2018-01-22T04:33:25.565Z,21.50
2018-01-22T04:33:59.247Z,23.48
2018-01-22T04:34:32.907Z,24.95
2018-01-22T04:35:06.700Z,22.15
2018-01-22T04:35:40.391Z,26.90
2018-01-22T04:36:14.653Z,19.10
2018-01-22T04:36:48.314Z,25.37
2018-01-22T04:37:21.979Z,22.42
2018-01-22T04:37:56.258Z,22.73
2018-01-22T04:38:29.933Z,25.10
2018-01-22T04:39:04.297Z,23.70
2018-01-22T04:39:37.960Z,18.08
2018-01-22T04:40:12.082Z,23.75
2018-01-22T04:40:46.063Z,23.77
2018-01-22T04:41:20.511Z,22.08
2018-01-22T04:41:54.190Z,21.50
2018-01-22T04:42:28.897Z,21.33
2018-01-22T04:43:02.379Z,22.35
2018-01-22T04:43:36.826Z,24.33
2018-01-22T04:44:10.509Z,22.30
2018-01-22T04:44:44.266Z,22.25
2018-01-22T04:45:17.942Z,21.17
2018-01-22T04:45:52.444Z,24.15
2018-01-22T04:46:26.952Z,23.90
2018-01-22T04:47:01.379Z,21.40
2018-01-22T04:47:35.037Z,21.12
2018-01-22T04:48:09.478Z,22.50
2018-01-22T04:48:43.177Z,22.05
2018-01-22T04:49:16.826Z,22.35
2018-01-22T04:49:50.505Z,21.05
2018-01-22T04:50:24.206Z,22.60
2018-01-22T04:50:58.637Z,19.85
2018-01-22T04:51:33.076Z,19.73
2018-01-22T04:52:06.737Z,17.90
2018-01-22T04:52:40.398Z,21.70
2018-01-22T04:53:14.070Z,21.48
2018-01-22T04:53:47.742Z,19.75
2018-01-22T04:54:21.402Z,20.73
2018-01-22T04:54:55.076Z,19.05
2018-01-22T04:55:29.516Z,20.85
2018-01-22T04:56:03.184Z,21.37
2018-01-22T04:56:36.842Z,18.30
2018-01-22T04:57:10.521Z,19.55
2018-01-22T04:57:44.178Z,18.58
2018-01-22T04:58:17.921Z,25.73
2018-01-22T04:58:52.366Z,19.90
2018-01-22T04:59:26.040Z,21.52
2018-01-22T04:59:59.710Z,19.33
2018-01-22T05:00:34.154Z,20.20
2018-01-22T05:01:07.818Z,19.98
2018-01-22T05:01:42.242Z,21.40
2018-01-22T05:02:15.920Z,18.30
2018-01-22T05:02:49.587Z,18.95
2018-01-22T05:03:23.250Z,19.08
2018-01-22T05:03:56.719Z,20.98
2018-01-22T05:04:30.248Z,19.70
2018-01-22T05:05:04.162Z,18.73
2018-01-22T05:05:38.606Z,19.45
2018-01-22T05:06:12.285Z,18.77
2018-01-22T05:06:45.951Z,22.00
2018-01-22T05:07:19.617Z,21.17
2018-01-22T05:07:54.047Z,21.23
2018-01-22T05:08:27.716Z,18.83
2018-01-22T05:09:02.146Z,21.62
2018-01-22T05:09:35.822Z,17.60
2018-01-22T05:10:10.255Z,20.17
2018-01-22T05:10:46.348Z,19.58
2018-01-22T05:11:20.038Z,19.95
2018-01-22T05:11:53.698Z,23.10
2018-01-22T05:12:27.366Z,18.35
2018-01-22T05:13:01.032Z,19.20
2018-01-22T05:13:35.473Z,19.62
2018-01-22T05:14:09.153Z,19.20
2018-01-22T05:14:42.821Z,19.27
2018-01-22T05:15:17.261Z,19.75
2018-01-22T05:15:50.955Z,21.05
2018-01-22T05:16:24.646Z,20.33
2018-01-22T05:16:58.318Z,18.83
2018-01-22T05:17:31.985Z,17.95
2018-01-22T05:18:06.414Z,20.30
2018-01-22T05:18:40.082Z,18.87
2018-01-22T05:19:14.526Z,20.27
2018-01-22T05:19:48.218Z,19.73
2018-01-22T05:20:21.884Z,19.85
2018-01-22T05:20:55.255Z,22.45
2018-01-22T05:21:29.690Z,18.83
2018-01-22T05:22:03.360Z,19.52
2018-01-22T05:22:37.019Z,17.17
2018-01-22T05:23:10.690Z,23.15
2018-01-22T05:23:44.354Z,19.83
2018-01-22T05:24:18.039Z,19.40
2018-01-22T05:24:51.702Z,20.60
2018-01-22T05:25:26.153Z,19.98
2018-01-22T05:25:59.841Z,15.15
2018-01-22T05:26:33.576Z,19.37
2018-01-22T05:27:08.006Z,19.25
2018-01-22T05:27:41.671Z,20.33
2018-01-22T05:28:16.099Z,20.85
2018-01-22T05:28:49.771Z,19.92
2018-01-22T05:29:24.213Z,17.30
2018-01-22T05:29:57.885Z,17.30
2018-01-22T05:30:31.545Z,15.10
2018-01-22T05:31:06.727Z,18.58
2018-01-22T05:31:40.395Z,19.12
2018-01-22T05:32:14.070Z,17.73
2018-01-22T05:32:48.613Z,22.20
2018-01-22T05:33:22.289Z,20.15
2018-01-22T05:33:55.946Z,16.92
2018-01-22T05:34:30.381Z,18.65
2018-01-22T05:35:04.044Z,17.60
2018-01-22T05:35:38.471Z,18.58
2018-01-22T05:36:12.174Z,17.98
2018-01-22T05:36:45.847Z,20.40
2018-01-22T05:37:19.510Z,19.85
2018-01-22T05:37:53.937Z,20.30
2018-01-22T05:38:28.368Z,19.27
2018-01-22T05:39:02.043Z,17.95
2018-01-22T05:39:35.712Z,20.62
2018-01-22T05:40:09.814Z,22.33
2018-01-22T05:40:44.293Z,17.05
2018-01-22T05:41:17.962Z,18.25
2018-01-22T05:41:51.638Z,20.33
2018-01-22T05:42:25.308Z,21.05
2018-01-22T05:42:58.969Z,18.75
2018-01-22T05:43:33.066Z,19.23
2018-01-22T05:44:07.556Z,22.73
2018-01-22T05:44:41.219Z,20.50
2018-01-22T05:45:16.587Z,18.50
2018-01-22T05:45:50.758Z,19.20
2018-01-22T05:46:25.424Z,21.67
2018-01-22T05:46:59.257Z,19.35
2018-01-22T05:47:32.975Z,20.73
2018-01-22T05:48:06.680Z,18.90
2018-01-22T05:48:40.354Z,23.23
2018-01-22T05:49:14.809Z,21.58
2018-01-22T05:49:48.615Z,19.60
2018-01-22T05:50:22.285Z,22.90
2018-01-22T05:50:56.865Z,22.42
2018-01-22T05:51:30.587Z,21.37
2018-01-22T05:52:04.267Z,22.37
2018-01-22T05:52:38.706Z,17.80
2018-01-22T05:53:12.365Z,19.90
2018-01-22T05:53:46.797Z,23.42
2018-01-22T05:54:20.553Z,21.10
2018-01-22T05:54:54.214Z,23.45
2018-01-22T05:55:27.876Z,25.05
2018-01-22T05:56:01.386Z,20.25
2018-01-22T05:56:34.873Z,20.55
2018-01-22T05:57:09.493Z,23.27
2018-01-22T05:57:43.770Z,18.70
2018-01-22T05:58:17.247Z,22.98
2018-01-22T05:58:50.732Z,25.15
2018-01-22T05:59:23.882Z,21.40
2018-01-22T05:59:58.138Z,20.83
2018-01-22T06:00:31.605Z,22.58
2018-01-22T06:01:05.309Z,20.80
2018-01-22T06:01:38.986Z,19.80
2018-01-22T06:02:12.730Z,20.10
2018-01-22T06:02:47.153Z,21.37
2018-01-22T06:03:20.821Z,19.65
2018-01-22T06:03:55.253Z,19.95
2018-01-22T06:04:29.882Z,23.83
2018-01-22T06:05:04.743Z,21.58
2018-01-22T06:05:38.410Z,20.90
2018-01-22T06:06:12.402Z,21.90
2018-01-22T06:06:46.066Z,25.65
2018-01-22T06:07:19.554Z,20.58
2018-01-22T06:07:53.221Z,22.98
2018-01-22T06:08:27.767Z,23.90
2018-01-22T06:09:01.494Z,21.67
2018-01-22T06:09:35.105Z,22.10
2018-01-22T06:10:08.755Z,24.52
2018-01-22T06:10:42.251Z,24.33
2018-01-22T06:11:16.253Z,23.52
2018-01-22T06:11:50.421Z,22.75
2018-01-22T06:12:24.069Z,25.73
2018-01-22T06:12:58.511Z,24.67
2018-01-22T06:13:32.188Z,23.48
2018-01-22T06:14:05.849Z,25.62
2018-01-22T06:14:39.745Z,27.13
2018-01-22T06:15:13.797Z,24.12
2018-01-22T06:15:47.948Z,25.15
2018-01-22T06:16:21.697Z,28.02
2018-01-22T06:16:55.767Z,26.15
2018-01-22T06:17:29.434Z,25.50
2018-01-22T06:18:03.878Z,26.73
2018-01-22T06:18:37.598Z,25.83
2018-01-22T06:19:11.631Z,25.60
2018-01-22T06:19:46.383Z,25.90
2018-01-22T06:20:20.062Z,29.45
2018-01-22T06:20:53.789Z,26.12
2018-01-22T06:21:27.299Z,24.65
2018-01-22T06:22:01.552Z,29.23
2018-01-22T06:22:35.027Z,27.60
2018-01-22T06:23:08.686Z,25.98
2018-01-22T06:23:43.127Z,28.45
2018-01-22T06:24:16.804Z,29.30
2018-01-22T06:24:51.507Z,26.55
2018-01-22T06:25:24.999Z,30.02
2018-01-22T06:25:58.467Z,29.50
2018-01-22T06:26:33.561Z,26.52
2018-01-22T06:27:06.966Z,26.27
2018-01-22T06:27:41.403Z,24.85
2018-01-22T06:28:14.871Z,31.33
2018-01-22T06:28:49.287Z,26.52
2018-01-22T06:29:22.769Z,25.20
2018-01-22T06:29:56.428Z,30.35
2018-01-22T06:30:30.086Z,31.23
2018-01-22T06:31:03.751Z,31.15
2018-01-22T06:31:37.702Z,28.52
2018-01-22T06:32:11.371Z,27.20
2018-01-22T06:32:45.042Z,30.83
2018-01-22T06:33:18.707Z,25.88
2018-01-22T06:33:52.378Z,28.85
2018-01-22T06:34:26.804Z,29.17
2018-01-22T06:35:00.471Z,28.10
2018-01-22T06:35:34.316Z,31.62
2018-01-22T06:36:07.970Z,26.27
2018-01-22T06:36:41.649Z,27.85
2018-01-22T06:37:16.126Z,25.52
2018-01-22T06:37:49.801Z,28.30
2018-01-22T06:38:23.454Z,26.42
2018-01-22T06:38:57.111Z,30.05
2018-01-22T06:39:31.551Z,28.08
2018-01-22T06:40:04.890Z,27.70
2018-01-22T06:40:38.603Z,31.23
2018-01-22T06:41:12.693Z,30.40
2018-01-22T06:41:47.148Z,30.90
2018-01-22T06:42:20.818Z,27.48
2018-01-22T06:42:54.501Z,27.13
2018-01-22T06:43:27.833Z,27.73
2018-01-22T06:44:01.537Z,27.95
2018-01-22T06:44:34.695Z,25.73
2018-01-22T06:45:08.369Z,27.52
2018-01-22T06:45:42.041Z,28.62
2018-01-22T06:46:15.705Z,28.52
2018-01-22T06:46:50.156Z,29.75
2018-01-22T06:47:23.806Z,26.33
2018-01-22T06:47:58.241Z,24.90
2018-01-22T06:48:31.889Z,25.77
2018-01-22T06:49:06.318Z,29.10
2018-01-22T06:49:39.975Z,22.30
2018-01-22T06:50:13.627Z,27.05
2018-01-22T06:50:47.285Z,25.83
2018-01-22T06:51:20.944Z,21.92
2018-01-22T06:51:56.145Z,27.23
2018-01-22T06:52:29.810Z,27.87
2018-01-22T06:53:03.472Z,29.02
2018-01-22T06:53:37.900Z,24.35
2018-01-22T06:54:11.565Z,22.90
2018-01-22T06:54:46.000Z,27.05
2018-01-22T06:55:19.671Z,22.37
2018-01-22T06:55:53.331Z,24.37
2018-01-22T06:56:27.767Z,22.35
2018-01-22T06:57:01.445Z,29.80
2018-01-22T06:57:35.883Z,25.35
2018-01-22T06:58:09.380Z,27.77
2018-01-22T06:58:43.108Z,28.30
2018-01-22T06:59:16.770Z,25.95
2018-01-22T06:59:50.436Z,26.70
2018-01-22T07:00:24.121Z,30.10
2018-01-22T07:00:57.777Z,27.17
2018-01-22T07:01:32.238Z,27.50
2018-01-22T07:02:05.922Z,25.65
2018-01-22T07:02:39.588Z,27.05
2018-01-22T07:03:13.257Z,24.85
2018-01-22T07:03:46.947Z,21.85
2018-01-22T07:04:21.376Z,25.45
2018-01-22T07:04:54.845Z,23.10
2018-01-22T07:05:29.290Z,27.95
2018-01-22T07:06:02.957Z,24.63
2018-01-22T07:06:36.613Z,25.25
2018-01-22T07:07:10.651Z,26.37
2018-01-22T07:07:44.311Z,24.92
2018-01-22T07:08:18.738Z,25.02
2018-01-22T07:08:52.400Z,25.90
2018-01-22T07:09:26.052Z,26.67
2018-01-22T07:09:59.713Z,27.73
2018-01-22T07:10:33.390Z,24.35
2018-01-22T07:11:07.823Z,25.45
2018-01-22T07:11:41.686Z,24.67
2018-01-22T07:12:16.132Z,25.50
2018-01-22T07:12:49.783Z,26.77
2018-01-22T07:13:24.243Z,33.42
2018-01-22T07:13:58.221Z,27.10
2018-01-22T07:14:31.917Z,24.90
2018-01-22T07:15:05.591Z,23.98
2018-01-22T07:15:39.162Z,29.77
2018-01-22T07:16:12.818Z,26.73
2018-01-22T07:16:46.561Z,26.75
2018-01-22T07:17:20.367Z,24.45
2018-01-22T07:17:54.027Z,26.98
2018-01-22T07:18:27.686Z,29.08
2018-01-22T07:19:01.354Z,28.15
2018-01-22T07:19:35.043Z,28.83
2018-01-22T07:20:08.706Z,26.27
2018-01-22T07:20:42.358Z,30.05
2018-01-22T07:21:16.788Z,23.45
2018-01-22T07:21:50.456Z,26.75
2018-01-22T07:22:25.262Z,28.87
2018-01-22T07:22:59.682Z,28.40
2018-01-22T07:23:33.346Z,22.60
2018-01-22T07:24:07.878Z,25.33
2018-01-22T07:24:42.856Z,25.02
2018-01-22T07:25:16.552Z,26.17
2018-01-22T07:25:50.086Z,24.00
2018-01-22T07:26:23.750Z,27.52
2018-01-22T07:26:57.469Z,28.27
2018-01-22T07:27:31.150Z,28.05
2018-01-22T07:28:05.780Z,28.65
2018-01-22T07:28:39.437Z,26.23
2018-01-22T07:29:13.857Z,26.40
2018-01-22T07:29:48.566Z,28.45
2018-01-22T07:30:22.994Z,28.00
2018-01-22T07:30:56.662Z,26.75
2018-01-22T07:31:31.133Z,25.85
2018-01-22T07:32:04.499Z,29.90
2018-01-22T07:32:38.190Z,29.70
2018-01-22T07:33:11.867Z,23.98
2018-01-22T07:33:45.523Z,29.70
2018-01-22T07:34:19.966Z,29.60
2018-01-22T07:34:53.671Z,28.33
2018-01-22T07:35:27.407Z,28.70
2018-01-22T07:36:01.851Z,25.05
2018-01-22T07:36:35.510Z,26.73
2018-01-22T07:37:09.187Z,27.40
2018-01-22T07:37:43.643Z,25.92
2018-01-22T07:38:17.319Z,23.25
2018-01-22T07:38:51.900Z,25.88
2018-01-22T07:39:26.409Z,25.85
2018-01-22T07:40:00.857Z,25.23
2018-01-22T07:40:34.545Z,27.65
2018-01-22T07:41:08.203Z,23.83
2018-01-22T07:41:42.638Z,27.13
2018-01-22T07:42:16.293Z,24.30
2018-01-22T07:42:50.794Z,26.73
2018-01-22T07:43:25.825Z,26.90
2018-01-22T07:44:00.251Z,26.52
2018-01-22T07:44:33.902Z,29.95
2018-01-22T07:45:08.458Z,28.60
2018-01-22T07:45:42.111Z,27.95
2018-01-22T07:46:16.206Z,27.67
2018-01-22T07:46:50.626Z,30.00
2018-01-22T07:47:25.056Z,26.65
2018-01-22T07:47:58.746Z,26.60
2018-01-22T07:48:32.409Z,27.05
2018-01-22T07:49:06.831Z,25.90
2018-01-22T07:49:40.174Z,25.35
2018-01-22T07:50:13.831Z,27.48
2018-01-22T07:50:47.481Z,31.75
2018-01-22T07:51:21.919Z,26.55
2018-01-22T07:51:55.399Z,24.48
2018-01-22T07:52:29.058Z,26.60
2018-01-22T07:53:03.657Z,26.75
2018-01-22T07:53:37.322Z,29.20
2018-01-22T07:54:11.053Z,29.85
2018-01-22T07:54:45.480Z,31.30
2018-01-22T07:55:19.131Z,31.40
2018-01-22T07:55:52.792Z,26.85
2018-01-22T07:56:26.459Z,26.52
2018-01-22T07:57:00.118Z,28.12
2018-01-22T07:57:34.545Z,26.98
2018-01-22T07:58:08.254Z,26.30
2018-01-22T07:58:41.926Z,28.45